sensor_id;sensor_type;location;lat;lon;timestamp;pressure;altitude;pressure_sealevel;temperature;humidity
83424;BME280;73355;49.044;8.686;2024-03-06T00:01:47;99732.44;;;8.17;69.87
83424;BME280;73355;49.044;8.686;2024-03-06T00:04:12;99741.34;;;8.18;70.07
83424;BME280;73355;49.044;8.686;2024-03-06T00:06:37;99743.69;;;8.19;69.92
83424;BME280;73355;49.044;8.686;2024-03-06T00:09:03;99743.28;;;8.21;69.85
83424;BME280;73355;49.044;8.686;2024-03-06T00:11:28;99750.25;;;8.22;69.75
83424;BME280;73355;49.044;8.686;2024-03-06T00:13:54;99749.50;;;8.21;69.63
83424;BME280;73355;49.044;8.686;2024-03-06T00:16:19;99751.41;;;8.21;69.89
83424;BME280;73355;49.044;8.686;2024-03-06T00:18:45;99753.34;;;8.17;70.09
83424;BME280;73355;49.044;8.686;2024-03-06T00:21:10;99749.50;;;8.14;70.11
83424;BME280;73355;49.044;8.686;2024-03-06T00:23:37;99751.03;;;8.12;70.54
83424;BME280;73355;49.044;8.686;2024-03-06T00:26:03;99746.78;;;8.11;70.36
83424;BME280;73355;49.044;8.686;2024-03-06T00:28:28;99756.47;;;8.12;70.49
83424;BME280;73355;49.044;8.686;2024-03-06T00:30:55;99753.34;;;8.10;70.43
83424;BME280;73355;49.044;8.686;2024-03-06T00:33:20;99759.16;;;8.12;70.51
83424;BME280;73355;49.044;8.686;2024-03-06T00:35:45;99761.88;;;8.15;70.23
83424;BME280;73355;49.044;8.686;2024-03-06T00:38:11;99759.19;;;8.19;70.24
83424;BME280;73355;49.044;8.686;2024-03-06T00:40:37;99765.75;;;8.21;70.24
83424;BME280;73355;49.044;8.686;2024-03-06T00:43:02;99761.09;;;8.22;70.60
83424;BME280;73355;49.044;8.686;2024-03-06T00:45:27;99763.03;;;8.21;70.20
83424;BME280;73355;49.044;8.686;2024-03-06T00:47:53;99750.25;;;8.22;70.24
83424;BME280;73355;49.044;8.686;2024-03-06T00:50:18;99758.78;;;8.24;69.93
83424;BME280;73355;49.044;8.686;2024-03-06T00:52:46;99747.94;;;8.24;70.13
83424;BME280;73355;49.044;8.686;2024-03-06T00:55:11;99746.78;;;8.25;69.92
83424;BME280;73355;49.044;8.686;2024-03-06T00:57:37;99749.50;;;8.28;69.95
83424;BME280;73355;49.044;8.686;2024-03-06T01:00:05;99744.50;;;8.31;69.72
83424;BME280;73355;49.044;8.686;2024-03-06T01:02:35;99746.00;;;8.28;69.66
83424;BME280;73355;49.044;8.686;2024-03-06T01:05:01;99748.72;;;8.28;69.87
83424;BME280;73355;49.044;8.686;2024-03-06T01:07:28;99739.81;;;8.27;69.75
83424;BME280;73355;49.044;8.686;2024-03-06T01:09:54;99749.09;;;8.26;69.78
83424;BME280;73355;49.044;8.686;2024-03-06T01:12:19;99747.94;;;8.24;70.04
83424;BME280;73355;49.044;8.686;2024-03-06T01:14:44;99747.56;;;8.22;69.85
83424;BME280;73355;49.044;8.686;2024-03-06T01:17:10;99747.56;;;8.18;70.10
83424;BME280;73355;49.044;8.686;2024-03-06T01:19:35;99755.28;;;8.16;70.01
83424;BME280;73355;49.044;8.686;2024-03-06T01:22:00;99751.03;;;8.12;70.10
83424;BME280;73355;49.044;8.686;2024-03-06T01:24:25;99753.75;;;8.12;70.22
83424;BME280;73355;49.044;8.686;2024-03-06T01:26:51;99754.16;;;8.14;70.10
83424;BME280;73355;49.044;8.686;2024-03-06T01:29:16;99756.84;;;8.14;70.33
83424;BME280;73355;49.044;8.686;2024-03-06T01:31:43;99767.28;;;8.15;70.36
83424;BME280;73355;49.044;8.686;2024-03-06T01:34:11;99760.72;;;8.16;70.22
83424;BME280;73355;49.044;8.686;2024-03-06T01:36:37;99757.25;;;8.19;70.23
83424;BME280;73355;49.044;8.686;2024-03-06T01:39:02;99761.09;;;8.22;70.25
83424;BME280;73355;49.044;8.686;2024-03-06T01:41:28;99760.75;;;8.20;70.42
83424;BME280;73355;49.044;8.686;2024-03-06T01:43:53;99764.97;;;8.21;70.44
83424;BME280;73355;49.044;8.686;2024-03-06T01:46:18;99758.78;;;8.20;70.37
83424;BME280;73355;49.044;8.686;2024-03-06T01:48:44;99761.09;;;8.22;70.37
83424;BME280;73355;49.044;8.686;2024-03-06T01:51:09;99761.88;;;8.26;70.26
83424;BME280;73355;49.044;8.686;2024-03-06T01:53:35;99763.06;;;8.28;70.17
83424;BME280;73355;49.044;8.686;2024-03-06T01:56:02;99757.28;;;8.30;70.14
83424;BME280;73355;49.044;8.686;2024-03-06T01:58:29;99766.97;;;8.31;70.02
83424;BME280;73355;49.044;8.686;2024-03-06T02:00:56;99763.47;;;8.31;70.00
83424;BME280;73355;49.044;8.686;2024-03-06T02:03:22;99765.00;;;8.28;69.86
83424;BME280;73355;49.044;8.686;2024-03-06T02:05:51;99763.44;;;8.23;69.91
83424;BME280;73355;49.044;8.686;2024-03-06T02:08:18;99759.19;;;8.22;70.28
83424;BME280;73355;49.044;8.686;2024-03-06T02:10:44;99756.84;;;8.21;70.09
83424;BME280;73355;49.044;8.686;2024-03-06T02:13:12;99762.25;;;8.21;70.39
83424;BME280;73355;49.044;8.686;2024-03-06T02:15:38;99751.06;;;8.19;70.25
83424;BME280;73355;49.044;8.686;2024-03-06T02:18:07;99754.13;;;8.21;70.26
83424;BME280;73355;49.044;8.686;2024-03-06T02:20:33;99763.03;;;8.21;70.22
83424;BME280;73355;49.044;8.686;2024-03-06T02:23:00;99751.44;;;8.24;70.54
83424;BME280;73355;49.044;8.686;2024-03-06T02:25:25;99754.94;;;8.25;70.17
83424;BME280;73355;49.044;8.686;2024-03-06T02:27:51;99757.63;;;8.25;70.10
83424;BME280;73355;49.044;8.686;2024-03-06T02:30:19;99765.38;;;8.26;70.44
83424;BME280;73355;49.044;8.686;2024-03-06T02:32:46;99767.69;;;8.28;69.97
83424;BME280;73355;49.044;8.686;2024-03-06T02:35:11;99761.13;;;8.29;70.38
83424;BME280;73355;49.044;8.686;2024-03-06T02:37:37;99763.84;;;8.29;70.02
83424;BME280;73355;49.044;8.686;2024-03-06T02:40:03;99768.88;;;8.23;70.02
83424;BME280;73355;49.044;8.686;2024-03-06T02:42:32;99769.22;;;8.15;70.29
83424;BME280;73355;49.044;8.686;2024-03-06T02:44:57;99772.72;;;8.08;70.61
83424;BME280;73355;49.044;8.686;2024-03-06T02:47:23;99763.41;;;8.02;70.51
83424;BME280;73355;49.044;8.686;2024-03-06T02:49:48;99761.09;;;8.01;71.02
83424;BME280;73355;49.044;8.686;2024-03-06T02:52:14;99761.50;;;8.03;71.14
83424;BME280;73355;49.044;8.686;2024-03-06T02:54:41;99760.72;;;8.06;70.95
83424;BME280;73355;49.044;8.686;2024-03-06T02:57:06;99764.94;;;8.03;70.92
83424;BME280;73355;49.044;8.686;2024-03-06T02:59:32;99766.50;;;8.04;71.03
83424;BME280;73355;49.044;8.686;2024-03-06T03:01:57;99773.09;;;8.07;71.00
83424;BME280;73355;49.044;8.686;2024-03-06T03:04:22;99772.31;;;8.10;70.64
83424;BME280;73355;49.044;8.686;2024-03-06T03:06:48;99777.38;;;8.11;71.15
83424;BME280;73355;49.044;8.686;2024-03-06T03:09:13;99780.47;;;8.13;70.90
83424;BME280;73355;49.044;8.686;2024-03-06T03:11:38;99776.22;;;8.12;71.02
83424;BME280;73355;49.044;8.686;2024-03-06T03:14:04;99773.50;;;8.12;70.99
83424;BME280;73355;49.044;8.686;2024-03-06T03:16:29;99782.78;;;8.11;70.76
83424;BME280;73355;49.044;8.686;2024-03-06T03:18:55;99783.16;;;8.10;71.01
83424;BME280;73355;49.044;8.686;2024-03-06T03:21:20;99787.81;;;8.09;70.92
83424;BME280;73355;49.044;8.686;2024-03-06T03:23:46;99786.28;;;8.12;71.36
83424;BME280;73355;49.044;8.686;2024-03-06T03:26:15;99785.13;;;8.13;71.06
83424;BME280;73355;49.044;8.686;2024-03-06T03:28:41;99788.22;;;8.15;71.09
83424;BME280;73355;49.044;8.686;2024-03-06T03:31:09;99790.16;;;8.18;71.35
83424;BME280;73355;49.044;8.686;2024-03-06T03:33:36;99788.59;;;8.17;71.03
83424;BME280;73355;49.044;8.686;2024-03-06T03:36:07;99790.94;;;8.18;71.15
83424;BME280;73355;49.044;8.686;2024-03-06T03:38:34;99794.03;;;8.20;71.12
83424;BME280;73355;49.044;8.686;2024-03-06T03:41:06;99791.72;;;8.22;71.20
83424;BME280;73355;49.044;8.686;2024-03-06T03:43:32;99798.69;;;8.27;71.07
83424;BME280;73355;49.044;8.686;2024-03-06T03:45:58;99792.47;;;8.26;70.96
83424;BME280;73355;49.044;8.686;2024-03-06T03:48:23;99788.22;;;8.22;70.96
83424;BME280;73355;49.044;8.686;2024-03-06T03:50:49;99786.66;;;8.17;70.83
83424;BME280;73355;49.044;8.686;2024-03-06T03:53:14;99790.56;;;8.20;70.83
83424;BME280;73355;49.044;8.686;2024-03-06T03:55:39;99799.06;;;8.22;71.03
83424;BME280;73355;49.044;8.686;2024-03-06T03:58:05;99792.50;;;8.23;71.08
83424;BME280;73355;49.044;8.686;2024-03-06T04:00:32;99797.91;;;8.23;71.39
83424;BME280;73355;49.044;8.686;2024-03-06T04:02:57;99802.56;;;8.22;71.01
83424;BME280;73355;49.044;8.686;2024-03-06T04:05:23;99795.56;;;8.21;71.11
83424;BME280;73355;49.044;8.686;2024-03-06T04:07:48;99800.63;;;8.19;71.09
83424;BME280;73355;49.044;8.686;2024-03-06T04:10:13;99802.16;;;8.20;71.06
83424;BME280;73355;49.044;8.686;2024-03-06T04:12:39;99803.72;;;8.21;70.94
83424;BME280;73355;49.044;8.686;2024-03-06T04:15:05;99798.69;;;8.23;71.15
83424;BME280;73355;49.044;8.686;2024-03-06T04:17:30;99803.34;;;8.23;71.06
83424;BME280;73355;49.044;8.686;2024-03-06T04:19:56;99805.66;;;8.24;70.84
83424;BME280;73355;49.044;8.686;2024-03-06T04:22:21;99807.97;;;8.26;70.91
83424;BME280;73355;49.044;8.686;2024-03-06T04:24:47;99814.19;;;8.26;71.14
83424;BME280;73355;49.044;8.686;2024-03-06T04:27:13;99823.09;;;8.27;71.14
83424;BME280;73355;49.044;8.686;2024-03-06T04:29:38;99817.66;;;8.27;70.96
83424;BME280;73355;49.044;8.686;2024-03-06T04:32:03;99823.50;;;8.25;71.16
83424;BME280;73355;49.044;8.686;2024-03-06T04:34:29;99827.34;;;8.28;71.32
83424;BME280;73355;49.044;8.686;2024-03-06T04:36:54;99829.66;;;8.26;71.18
83424;BME280;73355;49.044;8.686;2024-03-06T04:39:19;99829.69;;;8.22;71.25
83424;BME280;73355;49.044;8.686;2024-03-06T04:41:45;99831.22;;;8.20;71.09
83424;BME280;73355;49.044;8.686;2024-03-06T04:44:10;99831.22;;;8.20;71.13
83424;BME280;73355;49.044;8.686;2024-03-06T04:46:35;99827.34;;;8.21;71.37
83424;BME280;73355;49.044;8.686;2024-03-06T04:49:02;99830.06;;;8.21;71.22
83424;BME280;73355;49.044;8.686;2024-03-06T04:51:27;99833.53;;;8.18;70.82
83424;BME280;73355;49.044;8.686;2024-03-06T04:53:53;99839.34;;;8.13;71.04
83424;BME280;73355;49.044;8.686;2024-03-06T04:56:18;99839.69;;;8.04;70.59
83424;BME280;73355;49.044;8.686;2024-03-06T04:58:46;99841.63;;;8.00;71.19
83424;BME280;73355;49.044;8.686;2024-03-06T05:01:12;99843.94;;;7.98;71.25
83424;BME280;73355;49.044;8.686;2024-03-06T05:03:37;99850.53;;;7.97;71.17
83424;BME280;73355;49.044;8.686;2024-03-06T05:06:04;99854.78;;;7.95;71.06
83424;BME280;73355;49.044;8.686;2024-03-06T05:08:30;99857.47;;;7.91;71.31
83424;BME280;73355;49.044;8.686;2024-03-06T05:10:55;99859.78;;;7.89;71.24
83424;BME280;73355;49.044;8.686;2024-03-06T05:13:21;99860.97;;;7.92;72.08
83424;BME280;73355;49.044;8.686;2024-03-06T05:15:47;99862.13;;;7.98;71.30
83424;BME280;73355;49.044;8.686;2024-03-06T05:18:12;99855.97;;;8.01;71.70
83424;BME280;73355;49.044;8.686;2024-03-06T05:20:37;99873.78;;;8.05;71.34
83424;BME280;73355;49.044;8.686;2024-03-06T05:23:03;99876.50;;;8.09;71.22
83424;BME280;73355;49.044;8.686;2024-03-06T05:25:29;99882.69;;;8.09;71.44
83424;BME280;73355;49.044;8.686;2024-03-06T05:27:54;99881.91;;;8.09;71.23
83424;BME280;73355;49.044;8.686;2024-03-06T05:30:19;99877.28;;;8.09;71.06
83424;BME280;73355;49.044;8.686;2024-03-06T05:32:44;99891.59;;;8.10;71.15
83424;BME280;73355;49.044;8.686;2024-03-06T05:35:12;99888.88;;;8.03;71.25
83424;BME280;73355;49.044;8.686;2024-03-06T05:37:37;99893.50;;;7.99;71.44
83424;BME280;73355;49.044;8.686;2024-03-06T05:40:03;99895.84;;;8.00;71.66
83424;BME280;73355;49.044;8.686;2024-03-06T05:42:31;99900.09;;;8.01;71.62
83424;BME280;73355;49.044;8.686;2024-03-06T05:44:57;99900.47;;;8.03;71.62
83424;BME280;73355;49.044;8.686;2024-03-06T05:47:25;99903.59;;;8.09;71.72
83424;BME280;73355;49.044;8.686;2024-03-06T05:49:51;99912.91;;;8.15;72.13
83424;BME280;73355;49.044;8.686;2024-03-06T05:52:16;99915.66;;;8.22;71.88
83424;BME280;73355;49.044;8.686;2024-03-06T05:54:41;99910.28;;;8.25;71.95
83424;BME280;73355;49.044;8.686;2024-03-06T05:57:07;99910.66;;;8.27;71.91
83424;BME280;73355;49.044;8.686;2024-03-06T05:59:32;99914.56;;;8.30;72.03
83424;BME280;73355;49.044;8.686;2024-03-06T06:01:57;99912.97;;;8.29;72.04
83424;BME280;73355;49.044;8.686;2024-03-06T06:04:23;99928.06;;;8.26;71.90
83424;BME280;73355;49.044;8.686;2024-03-06T06:06:48;99925.75;;;8.25;71.87
83424;BME280;73355;49.044;8.686;2024-03-06T06:09:14;99923.03;;;8.21;72.20
83424;BME280;73355;49.044;8.686;2024-03-06T06:11:41;99920.31;;;8.18;72.28
83424;BME280;73355;49.044;8.686;2024-03-06T06:14:07;99927.25;;;8.15;72.46
83424;BME280;73355;49.044;8.686;2024-03-06T06:16:38;99934.63;;;8.15;72.63
83424;BME280;73355;49.044;8.686;2024-03-06T06:19:06;99938.88;;;8.12;72.49
83424;BME280;73355;49.044;8.686;2024-03-06T06:21:31;99935.38;;;8.08;72.70
83424;BME280;73355;49.044;8.686;2024-03-06T06:23:57;99944.22;;;7.98;72.46
83424;BME280;73355;49.044;8.686;2024-03-06T06:26:22;99945.72;;;7.88;72.75
83424;BME280;73355;49.044;8.686;2024-03-06T06:28:48;99949.97;;;7.82;73.34
83424;BME280;73355;49.044;8.686;2024-03-06T06:31:13;99949.19;;;7.82;73.45
83424;BME280;73355;49.044;8.686;2024-03-06T06:33:38;99957.31;;;7.82;73.81
83424;BME280;73355;49.044;8.686;2024-03-06T06:36:04;99954.59;;;7.82;73.64
83424;BME280;73355;49.044;8.686;2024-03-06T06:38:30;99954.63;;;7.85;73.71
83424;BME280;73355;49.044;8.686;2024-03-06T06:40:56;99959.69;;;7.94;73.76
83424;BME280;73355;49.044;8.686;2024-03-06T06:43:21;99963.25;;;8.05;73.73
83424;BME280;73355;49.044;8.686;2024-03-06T06:45:47;99975.69;;;8.13;73.46
83424;BME280;73355;49.044;8.686;2024-03-06T06:48:12;99975.69;;;8.13;73.55
83424;BME280;73355;49.044;8.686;2024-03-06T06:50:38;99976.47;;;8.14;73.21
83424;BME280;73355;49.044;8.686;2024-03-06T06:53:03;99981.88;;;8.14;73.62
83424;BME280;73355;49.044;8.686;2024-03-06T06:55:30;99979.56;;;8.16;73.57
83424;BME280;73355;49.044;8.686;2024-03-06T06:57:56;99976.47;;;8.21;73.47
83424;BME280;73355;49.044;8.686;2024-03-06T07:00:21;99975.31;;;8.22;73.57
83424;BME280;73355;49.044;8.686;2024-03-06T07:02:48;99985.78;;;8.23;73.68
83424;BME280;73355;49.044;8.686;2024-03-06T07:05:13;99985.38;;;8.18;73.50
83424;BME280;73355;49.044;8.686;2024-03-06T07:07:39;99980.75;;;8.18;73.33
83424;BME280;73355;49.044;8.686;2024-03-06T07:10:05;99987.72;;;8.19;73.95
83424;BME280;73355;49.044;8.686;2024-03-06T07:12:31;99991.22;;;8.23;73.86
83424;BME280;73355;49.044;8.686;2024-03-06T07:14:57;99992.38;;;8.22;73.85
83424;BME280;73355;49.044;8.686;2024-03-06T07:17:22;99991.22;;;8.20;74.01
83424;BME280;73355;49.044;8.686;2024-03-06T07:19:48;99997.78;;;8.22;73.97
83424;BME280;73355;49.044;8.686;2024-03-06T07:22:13;99988.88;;;8.18;74.25
83424;BME280;73355;49.044;8.686;2024-03-06T07:24:39;99996.59;;;8.13;74.02
83424;BME280;73355;49.044;8.686;2024-03-06T07:27:04;99995.03;;;8.08;74.25
83424;BME280;73355;49.044;8.686;2024-03-06T07:29:30;99994.97;;;8.01;74.58
83424;BME280;73355;49.044;8.686;2024-03-06T07:31:55;99998.84;;;7.97;74.73
83424;BME280;73355;49.044;8.686;2024-03-06T07:34:20;99994.56;;;7.96;75.08
83424;BME280;73355;49.044;8.686;2024-03-06T07:36:47;99994.91;;;7.91;75.45
83424;BME280;73355;49.044;8.686;2024-03-06T07:39:15;99993.38;;;7.89;75.44
83424;BME280;73355;49.044;8.686;2024-03-06T07:41:40;99999.94;;;7.88;75.74
83424;BME280;73355;49.044;8.686;2024-03-06T07:44:05;100003.00;;;7.87;75.44
83424;BME280;73355;49.044;8.686;2024-03-06T07:46:30;100007.69;;;7.90;75.93
83424;BME280;73355;49.044;8.686;2024-03-06T07:48:56;100011.56;;;7.93;75.95
83424;BME280;73355;49.044;8.686;2024-03-06T07:51:21;100011.56;;;7.89;76.15
83424;BME280;73355;49.044;8.686;2024-03-06T07:53:46;100016.56;;;7.83;76.26
83424;BME280;73355;49.044;8.686;2024-03-06T07:56:12;100016.84;;;7.71;76.18
83424;BME280;73355;49.044;8.686;2024-03-06T07:58:37;100013.72;;;7.66;76.40
83424;BME280;73355;49.044;8.686;2024-03-06T08:01:03;100014.91;;;7.68;76.80
83424;BME280;73355;49.044;8.686;2024-03-06T08:03:28;100017.22;;;7.70;77.09
83424;BME280;73355;49.044;8.686;2024-03-06T08:05:54;100019.97;;;7.73;77.19
83424;BME280;73355;49.044;8.686;2024-03-06T08:08:19;100020.75;;;7.74;77.24
83424;BME280;73355;49.044;8.686;2024-03-06T08:10:45;100021.53;;;7.74;77.41
83424;BME280;73355;49.044;8.686;2024-03-06T08:13:11;100025.75;;;7.72;77.13
83424;BME280;73355;49.044;8.686;2024-03-06T08:15:36;100022.69;;;7.73;77.32
83424;BME280;73355;49.044;8.686;2024-03-06T08:18:02;100028.91;;;7.77;77.87
83424;BME280;73355;49.044;8.686;2024-03-06T08:20:29;100027.41;;;7.87;77.76
83424;BME280;73355;49.044;8.686;2024-03-06T08:22:55;100025.91;;;7.93;77.84
83424;BME280;73355;49.044;8.686;2024-03-06T08:25:21;100028.66;;;8.00;77.71
83424;BME280;73355;49.044;8.686;2024-03-06T08:27:46;100027.88;;;8.03;77.92
83424;BME280;73355;49.044;8.686;2024-03-06T08:30:12;100033.34;;;8.07;77.57
83424;BME280;73355;49.044;8.686;2024-03-06T08:32:38;100040.72;;;8.10;77.48
83424;BME280;73355;49.044;8.686;2024-03-06T08:35:08;100036.06;;;8.10;76.77
83424;BME280;73355;49.044;8.686;2024-03-06T08:37:38;100037.97;;;8.03;76.73
83424;BME280;73355;49.044;8.686;2024-03-06T08:40:04;100037.97;;;8.03;77.02
83424;BME280;73355;49.044;8.686;2024-03-06T08:42:30;100044.56;;;8.02;76.81
83424;BME280;73355;49.044;8.686;2024-03-06T08:44:55;100049.56;;;8.00;76.89
83424;BME280;73355;49.044;8.686;2024-03-06T08:47:22;100058.88;;;8.02;77.04
83424;BME280;73355;49.044;8.686;2024-03-06T08:49:47;100055.41;;;8.02;76.99
83424;BME280;73355;49.044;8.686;2024-03-06T08:52:13;100047.25;;;8.02;76.62
83424;BME280;73355;49.044;8.686;2024-03-06T08:54:40;100062.38;;;8.06;77.07
83424;BME280;73355;49.044;8.686;2024-03-06T08:57:06;100059.34;;;8.15;77.19
83424;BME280;73355;49.044;8.686;2024-03-06T08:59:33;100063.66;;;8.23;77.18
83424;BME280;73355;49.044;8.686;2024-03-06T09:02:12;100067.56;;;8.29;77.11
83424;BME280;73355;49.044;8.686;2024-03-06T09:04:38;100069.53;;;8.32;77.04
83424;BME280;73355;49.044;8.686;2024-03-06T09:07:03;100076.16;;;8.35;76.49
83424;BME280;73355;49.044;8.686;2024-03-06T09:09:29;100065.66;;;8.33;76.58
83424;BME280;73355;49.044;8.686;2024-03-06T09:11:54;100077.34;;;8.37;76.83
83424;BME280;73355;49.044;8.686;2024-03-06T09:14:19;100074.63;;;8.41;76.61
83424;BME280;73355;49.044;8.686;2024-03-06T09:16:45;100075.78;;;8.43;77.16
83424;BME280;73355;49.044;8.686;2024-03-06T09:19:11;100076.19;;;8.42;76.08
83424;BME280;73355;49.044;8.686;2024-03-06T09:21:36;100075.72;;;8.33;75.84
83424;BME280;73355;49.044;8.686;2024-03-06T09:24:02;100074.91;;;8.28;76.27
83424;BME280;73355;49.044;8.686;2024-03-06T09:26:27;100073.44;;;8.35;76.58
83424;BME280;73355;49.044;8.686;2024-03-06T09:28:52;100082.34;;;8.39;76.88
83424;BME280;73355;49.044;8.686;2024-03-06T09:31:18;100081.22;;;8.43;76.55
83424;BME280;73355;49.044;8.686;2024-03-06T09:33:43;100082.03;;;8.51;76.42
83424;BME280;73355;49.044;8.686;2024-03-06T09:36:10;100078.22;;;8.62;76.63
83424;BME280;73355;49.044;8.686;2024-03-06T09:38:35;100080.94;;;8.66;76.06
83424;BME280;73355;49.044;8.686;2024-03-06T09:41:02;100084.41;;;8.63;75.35
83424;BME280;73355;49.044;8.686;2024-03-06T09:43:28;100085.19;;;8.63;75.76
83424;BME280;73355;49.044;8.686;2024-03-06T09:45:54;100087.91;;;8.63;75.77
83424;BME280;73355;49.044;8.686;2024-03-06T09:48:21;100081.34;;;8.64;75.58
83424;BME280;73355;49.044;8.686;2024-03-06T09:50:49;100084.00;;;8.61;76.08
83424;BME280;73355;49.044;8.686;2024-03-06T09:53:15;100080.53;;;8.57;75.37
83424;BME280;73355;49.044;8.686;2024-03-06T09:55:42;100078.19;;;8.55;75.84
83424;BME280;73355;49.044;8.686;2024-03-06T09:58:08;100083.59;;;8.55;75.88
83424;BME280;73355;49.044;8.686;2024-03-06T10:00:37;100086.69;;;8.50;75.95
83424;BME280;73355;49.044;8.686;2024-03-06T10:03:03;100093.66;;;8.55;76.43
83424;BME280;73355;49.044;8.686;2024-03-06T10:05:31;100094.09;;;8.60;76.32
83424;BME280;73355;49.044;8.686;2024-03-06T10:08:00;100098.34;;;8.58;75.49
83424;BME280;73355;49.044;8.686;2024-03-06T10:10:25;100092.16;;;8.61;75.83
83424;BME280;73355;49.044;8.686;2024-03-06T10:12:52;100088.28;;;8.62;76.12
83424;BME280;73355;49.044;8.686;2024-03-06T10:15:17;100086.75;;;8.68;76.52
83424;BME280;73355;49.044;8.686;2024-03-06T10:17:43;100096.88;;;8.71;76.03
83424;BME280;73355;49.044;8.686;2024-03-06T10:20:23;100094.13;;;8.64;75.54
83424;BME280;73355;49.044;8.686;2024-03-06T10:22:50;100099.56;;;8.67;75.97
83424;BME280;73355;49.044;8.686;2024-03-06T10:25:19;100091.03;;;8.69;76.05
83424;BME280;73355;49.044;8.686;2024-03-06T10:27:45;100103.81;;;8.68;75.69
83424;BME280;73355;49.044;8.686;2024-03-06T10:30:11;100103.06;;;8.68;75.21
83424;BME280;73355;49.044;8.686;2024-03-06T10:32:41;100093.34;;;8.67;75.40
83424;BME280;73355;49.044;8.686;2024-03-06T10:35:17;100095.31;;;8.70;75.51
83424;BME280;73355;49.044;8.686;2024-03-06T10:37:45;100092.19;;;8.71;75.33
83424;BME280;73355;49.044;8.686;2024-03-06T10:40:14;100098.00;;;8.66;74.85
83424;BME280;73355;49.044;8.686;2024-03-06T10:42:40;100092.19;;;8.64;75.21
83424;BME280;73355;49.044;8.686;2024-03-06T10:45:08;100096.84;;;8.67;75.14
83424;BME280;73355;49.044;8.686;2024-03-06T10:47:39;100093.34;;;8.67;75.24
83424;BME280;73355;49.044;8.686;2024-03-06T10:50:06;100097.63;;;8.68;75.50
83424;BME280;73355;49.044;8.686;2024-03-06T10:52:36;100095.69;;;8.68;75.57
83424;BME280;73355;49.044;8.686;2024-03-06T10:55:03;100095.31;;;8.74;75.55
83424;BME280;73355;49.044;8.686;2024-03-06T10:57:29;100102.28;;;8.67;74.85
83424;BME280;73355;49.044;8.686;2024-03-06T10:59:56;100096.06;;;8.63;74.75
83424;BME280;73355;49.044;8.686;2024-03-06T11:02:23;100103.03;;;8.64;75.06
83424;BME280;73355;49.044;8.686;2024-03-06T11:04:51;100103.41;;;8.66;75.27
83424;BME280;73355;49.044;8.686;2024-03-06T11:07:16;100102.69;;;8.69;75.31
83424;BME280;73355;49.044;8.686;2024-03-06T11:09:42;100101.91;;;8.69;75.24
83424;BME280;73355;49.044;8.686;2024-03-06T11:12:07;100103.06;;;8.71;75.03
83424;BME280;73355;49.044;8.686;2024-03-06T11:14:36;100099.19;;;8.69;74.95
83424;BME280;73355;49.044;8.686;2024-03-06T11:28:21;100110.50;;;8.85;74.35
83424;BME280;73355;49.044;8.686;2024-03-06T11:31:07;100113.63;;;8.91;74.21
83424;BME280;73355;49.044;8.686;2024-03-06T11:33:45;100108.19;;;8.91;73.97
83424;BME280;73355;49.044;8.686;2024-03-06T11:36:27;100102.38;;;8.92;73.93
83424;BME280;73355;49.044;8.686;2024-03-06T11:38:58;100106.25;;;8.95;73.90
83424;BME280;73355;49.044;8.686;2024-03-06T11:44:02;100103.19;;;9.03;73.94
83424;BME280;73355;49.044;8.686;2024-03-06T11:49:24;100095.47;;;9.16;73.18
83424;BME280;73355;49.044;8.686;2024-03-06T11:51:54;100104.00;;;9.18;73.39
83424;BME280;73355;49.044;8.686;2024-03-06T11:54:20;100103.22;;;9.18;73.31
83424;BME280;73355;49.044;8.686;2024-03-06T11:56:50;100110.59;;;9.17;73.46
83424;BME280;73355;49.044;8.686;2024-03-06T11:59:16;100110.59;;;9.17;73.63
83424;BME280;73355;49.044;8.686;2024-03-06T12:01:42;100108.25;;;9.23;74.05
83424;BME280;73355;49.044;8.686;2024-03-06T12:04:07;100106.34;;;9.27;74.17
83424;BME280;73355;49.044;8.686;2024-03-06T12:06:33;100104.41;;;9.31;73.90
83424;BME280;73355;49.044;8.686;2024-03-06T12:08:58;100108.31;;;9.33;73.85
83424;BME280;73355;49.044;8.686;2024-03-06T12:11:24;100112.56;;;9.34;73.49
83424;BME280;73355;49.044;8.686;2024-03-06T12:13:51;100111.03;;;9.33;73.04
83424;BME280;73355;49.044;8.686;2024-03-06T12:16:17;100099.38;;;9.33;73.51
83424;BME280;73355;49.044;8.686;2024-03-06T12:18:42;100111.81;;;9.37;73.64
83424;BME280;73355;49.044;8.686;2024-03-06T12:21:12;100105.22;;;9.38;73.26
83424;BME280;73355;49.044;8.686;2024-03-06T12:23:39;100105.59;;;9.40;73.66
83424;BME280;73355;49.044;8.686;2024-03-06T12:28:29;100106.38;;;9.41;73.27
83424;BME280;73355;49.044;8.686;2024-03-06T12:30:55;100106.38;;;9.44;73.58
83424;BME280;73355;49.044;8.686;2024-03-06T12:33:20;100111.81;;;9.51;73.71
83424;BME280;73355;49.044;8.686;2024-03-06T12:35:46;100103.28;;;9.53;73.52
83424;BME280;73355;49.044;8.686;2024-03-06T12:38:15;100098.63;;;9.53;72.71
83424;BME280;73355;49.044;8.686;2024-03-06T12:40:41;100102.91;;;9.51;72.66
83424;BME280;73355;49.044;8.686;2024-03-06T12:43:07;100102.88;;;9.47;72.84
83424;BME280;73355;49.044;8.686;2024-03-06T12:45:33;100104.84;;;9.50;72.88
83424;BME280;73355;49.044;8.686;2024-03-06T12:47:59;100104.84;;;9.50;72.71
83424;BME280;73355;49.044;8.686;2024-03-06T12:50:24;100112.22;;;9.50;73.16
83424;BME280;73355;49.044;8.686;2024-03-06T12:52:49;100113.78;;;9.51;73.20
83424;BME280;73355;49.044;8.686;2024-03-06T12:55:15;100111.81;;;9.48;72.81
83424;BME280;73355;49.044;8.686;2024-03-06T12:57:41;100110.66;;;9.49;73.33
83424;BME280;73355;49.044;8.686;2024-03-06T13:00:07;100110.66;;;9.52;73.16
83424;BME280;73355;49.044;8.686;2024-03-06T13:02:43;100111.06;;;9.51;73.47
83424;BME280;73355;49.044;8.686;2024-03-06T13:05:09;100108.34;;;9.54;73.85
83424;BME280;73355;49.044;8.686;2024-03-06T13:07:34;100105.25;;;9.56;74.00
83424;BME280;73355;49.044;8.686;2024-03-06T13:10:01;100100.97;;;9.59;73.75
83424;BME280;73355;49.044;8.686;2024-03-06T13:12:26;100100.19;;;9.62;73.65
83424;BME280;73355;49.044;8.686;2024-03-06T13:14:51;100102.91;;;9.62;73.68
83424;BME280;73355;49.044;8.686;2024-03-06T13:17:17;100094.38;;;9.60;73.85
83424;BME280;73355;49.044;8.686;2024-03-06T13:19:43;100097.09;;;9.60;73.89
83424;BME280;73355;49.044;8.686;2024-03-06T13:22:08;100092.44;;;9.60;73.76